Vestmannaeyjar, Iceland
Current Conditions -  °F | °C
As of 12:00 AM on Saturday 29 Nov 2014 (Local Time) from BIRK Reporting Station
Moderate Rain Moderate Rain  
Wind Chill: 40°   Ceiling: 2200
Heat Index: 48°   Visibility: 5mi
Dew Point: 41°   Wind: 26mph
Humidity: 76%   Direction: 120°ESE
Pressure: 29.23"   Gusts: 48mph
Location:  63.44°N, 20.27°W
Report Text: BIRK 290000Z 12023G42KT 8000 RA BKN022 OVC035 09/05 Q0990
Loading
Personal Weather Stations






























Interactive Weather Map New forecast layout! Learn more

10-Day Weather Forecast

Advertisements
Track Severe Weather on mobile